sensor_id;sensor_type;location;lat;lon;timestamp;temperature;humidity
40454;DHT22;26160;51.858;4.398;2023-02-15T00:01:51;1.80;99.90
40454;DHT22;26160;51.858;4.398;2023-02-15T00:04:20;1.80;99.90
40454;DHT22;26160;51.858;4.398;2023-02-15T00:06:47;1.80;99.90
40454;DHT22;26160;51.858;4.398;2023-02-15T00:09:13;1.80;99.90
40454;DHT22;26160;51.858;4.398;2023-02-15T00:11:43;1.80;99.90
40454;DHT22;26160;51.858;4.398;2023-02-15T00:14:22;1.70;99.90
40454;DHT22;26160;51.858;4.398;2023-02-15T00:16:50;1.70;99.90
40454;DHT22;26160;51.858;4.398;2023-02-15T00:19:18;1.70;99.90
40454;DHT22;26160;51.858;4.398;2023-02-15T00:21:45;1.70;99.90
40454;DHT22;26160;51.858;4.398;2023-02-15T00:24:13;1.70;99.90
40454;DHT22;26160;51.858;4.398;2023-02-15T00:26:41;1.70;99.90
40454;DHT22;26160;51.858;4.398;2023-02-15T00:29:08;1.70;99.90
40454;DHT22;26160;51.858;4.398;2023-02-15T00:31:34;1.70;99.90
40454;DHT22;26160;51.858;4.398;2023-02-15T00:34:05;1.60;99.90
40454;DHT22;26160;51.858;4.398;2023-02-15T00:36:32;1.50;99.90
40454;DHT22;26160;51.858;4.398;2023-02-15T00:38:59;1.40;99.90
40454;DHT22;26160;51.858;4.398;2023-02-15T00:41:25;1.40;99.90
40454;DHT22;26160;51.858;4.398;2023-02-15T00:43:51;1.50;99.90
40454;DHT22;26160;51.858;4.398;2023-02-15T00:46:17;1.40;99.90
40454;DHT22;26160;51.858;4.398;2023-02-15T00:48:43;1.40;99.90
40454;DHT22;26160;51.858;4.398;2023-02-15T00:51:09;1.40;99.90
40454;DHT22;26160;51.858;4.398;2023-02-15T00:53:35;1.30;99.90
40454;DHT22;26160;51.858;4.398;2023-02-15T00:56:01;1.30;99.90
40454;DHT22;26160;51.858;4.398;2023-02-15T00:58:27;1.30;99.90
40454;DHT22;26160;51.858;4.398;2023-02-15T01:00:54;1.30;99.90
40454;DHT22;26160;51.858;4.398;2023-02-15T01:03:20;1.30;99.90
40454;DHT22;26160;51.858;4.398;2023-02-15T01:05:48;1.30;99.90
40454;DHT22;26160;51.858;4.398;2023-02-15T01:08:15;1.20;99.90
40454;DHT22;26160;51.858;4.398;2023-02-15T01:10:41;1.20;99.90
40454;DHT22;26160;51.858;4.398;2023-02-15T01:13:09;1.20;99.90
40454;DHT22;26160;51.858;4.398;2023-02-15T01:15:36;1.10;99.90
40454;DHT22;26160;51.858;4.398;2023-02-15T01:18:02;1.10;99.90
40454;DHT22;26160;51.858;4.398;2023-02-15T01:20:29;1.10;99.90
40454;DHT22;26160;51.858;4.398;2023-02-15T01:22:56;1.10;99.90
40454;DHT22;26160;51.858;4.398;2023-02-15T01:25:23;1.10;99.90
40454;DHT22;26160;51.858;4.398;2023-02-15T01:27:49;1.10;99.90
40454;DHT22;26160;51.858;4.398;2023-02-15T01:30:16;1.10;99.90
40454;DHT22;26160;51.858;4.398;2023-02-15T01:32:42;1.10;99.90
40454;DHT22;26160;51.858;4.398;2023-02-15T01:35:09;1.00;99.90
40454;DHT22;26160;51.858;4.398;2023-02-15T01:37:36;1.00;99.90
40454;DHT22;26160;51.858;4.398;2023-02-15T01:40:07;1.00;99.90
40454;DHT22;26160;51.858;4.398;2023-02-15T01:42:33;1.10;99.90
40454;DHT22;26160;51.858;4.398;2023-02-15T01:45:02;1.10;99.90
40454;DHT22;26160;51.858;4.398;2023-02-15T01:47:40;1.00;99.90
40454;DHT22;26160;51.858;4.398;2023-02-15T01:50:11;1.00;99.90
40454;DHT22;26160;51.858;4.398;2023-02-15T01:52:43;1.00;99.90
40454;DHT22;26160;51.858;4.398;2023-02-15T01:55:12;1.00;99.90
40454;DHT22;26160;51.858;4.398;2023-02-15T01:57:39;1.00;99.90
40454;DHT22;26160;51.858;4.398;2023-02-15T02:00:08;1.00;99.90
40454;DHT22;26160;51.858;4.398;2023-02-15T02:02:35;0.90;99.90
40454;DHT22;26160;51.858;4.398;2023-02-15T02:05:05;0.90;99.90
40454;DHT22;26160;51.858;4.398;2023-02-15T02:07:35;0.90;99.90
40454;DHT22;26160;51.858;4.398;2023-02-15T02:10:04;0.80;99.90
40454;DHT22;26160;51.858;4.398;2023-02-15T02:12:31;0.80;99.90
40454;DHT22;26160;51.858;4.398;2023-02-15T02:14:58;0.80;99.90
40454;DHT22;26160;51.858;4.398;2023-02-15T02:26:00;0.70;99.90
40454;DHT22;26160;51.858;4.398;2023-02-15T02:28:44;0.70;99.90
40454;DHT22;26160;51.858;4.398;2023-02-15T02:36:54;0.70;99.90
40454;DHT22;26160;51.858;4.398;2023-02-15T02:39:23;0.60;99.90
40454;DHT22;26160;51.858;4.398;2023-02-15T02:44:22;0.60;99.90
40454;DHT22;26160;51.858;4.398;2023-02-15T02:49:42;0.60;99.90
40454;DHT22;26160;51.858;4.398;2023-02-15T02:52:46;0.60;99.90
40454;DHT22;26160;51.858;4.398;2023-02-15T02:58:31;0.50;99.90
40454;DHT22;26160;51.858;4.398;2023-02-15T03:03:59;0.40;99.90
40454;DHT22;26160;51.858;4.398;2023-02-15T03:06:37;0.40;99.90
40454;DHT22;26160;51.858;4.398;2023-02-15T03:09:14;0.40;99.90
40454;DHT22;26160;51.858;4.398;2023-02-15T03:11:43;0.50;99.90
40454;DHT22;26160;51.858;4.398;2023-02-15T03:14:10;0.60;99.90
40454;DHT22;26160;51.858;4.398;2023-02-15T03:16:38;0.60;99.90
40454;DHT22;26160;51.858;4.398;2023-02-15T03:19:09;0.50;99.90
40454;DHT22;26160;51.858;4.398;2023-02-15T03:21:40;0.40;99.90
40454;DHT22;26160;51.858;4.398;2023-02-15T03:24:12;0.40;99.90
40454;DHT22;26160;51.858;4.398;2023-02-15T03:26:43;0.40;99.90
40454;DHT22;26160;51.858;4.398;2023-02-15T03:29:11;0.40;99.90
40454;DHT22;26160;51.858;4.398;2023-02-15T03:31:42;0.40;99.90
40454;DHT22;26160;51.858;4.398;2023-02-15T03:34:12;0.40;99.90
40454;DHT22;26160;51.858;4.398;2023-02-15T03:36:56;0.30;99.90
40454;DHT22;26160;51.858;4.398;2023-02-15T03:39:36;0.30;99.90
40454;DHT22;26160;51.858;4.398;2023-02-15T03:42:09;0.30;99.90
40454;DHT22;26160;51.858;4.398;2023-02-15T03:47:15;0.30;99.90
40454;DHT22;26160;51.858;4.398;2023-02-15T03:49:57;0.20;99.90
40454;DHT22;26160;51.858;4.398;2023-02-15T03:52:26;0.20;99.90
40454;DHT22;26160;51.858;4.398;2023-02-15T03:54:53;0.20;99.90
40454;DHT22;26160;51.858;4.398;2023-02-15T03:57:23;0.20;99.90
40454;DHT22;26160;51.858;4.398;2023-02-15T04:00:21;0.20;99.90
40454;DHT22;26160;51.858;4.398;2023-02-15T04:05:51;0.10;99.90
40454;DHT22;26160;51.858;4.398;2023-02-15T04:08:17;0.10;99.90
40454;DHT22;26160;51.858;4.398;2023-02-15T04:10:44;0.10;99.90
40454;DHT22;26160;51.858;4.398;2023-02-15T04:13:29;0.10;99.90
40454;DHT22;26160;51.858;4.398;2023-02-15T04:15:56;0.10;99.90
40454;DHT22;26160;51.858;4.398;2023-02-15T04:21:23;0.00;99.90
40454;DHT22;26160;51.858;4.398;2023-02-15T04:24:09;0.00;99.90
40454;DHT22;26160;51.858;4.398;2023-02-15T04:26:54;-0.10;99.90
40454;DHT22;26160;51.858;4.398;2023-02-15T04:29:21;-0.10;99.90
40454;DHT22;26160;51.858;4.398;2023-02-15T04:31:48;-0.10;99.90
40454;DHT22;26160;51.858;4.398;2023-02-15T04:34:15;0.00;99.90
40454;DHT22;26160;51.858;4.398;2023-02-15T04:36:41;-0.10;99.90
40454;DHT22;26160;51.858;4.398;2023-02-15T04:39:08;-0.10;99.90
40454;DHT22;26160;51.858;4.398;2023-02-15T04:41:34;-0.20;99.90
40454;DHT22;26160;51.858;4.398;2023-02-15T04:44:01;-0.20;99.90
40454;DHT22;26160;51.858;4.398;2023-02-15T04:46:28;-0.20;99.90
40454;DHT22;26160;51.858;4.398;2023-02-15T04:48:54;-0.20;99.90
40454;DHT22;26160;51.858;4.398;2023-02-15T04:51:21;-0.20;99.90
40454;DHT22;26160;51.858;4.398;2023-02-15T04:53:47;-0.20;99.90
40454;DHT22;26160;51.858;4.398;2023-02-15T04:56:13;-0.20;99.90
40454;DHT22;26160;51.858;4.398;2023-02-15T04:58:39;-0.20;99.90
40454;DHT22;26160;51.858;4.398;2023-02-15T05:01:09;-0.20;99.90
40454;DHT22;26160;51.858;4.398;2023-02-15T05:03:36;-0.20;99.90
40454;DHT22;26160;51.858;4.398;2023-02-15T05:06:03;-0.30;99.90
40454;DHT22;26160;51.858;4.398;2023-02-15T05:08:29;-0.30;99.90
40454;DHT22;26160;51.858;4.398;2023-02-15T05:10:56;-0.30;99.90
40454;DHT22;26160;51.858;4.398;2023-02-15T05:13:23;-0.30;99.90
40454;DHT22;26160;51.858;4.398;2023-02-15T05:15:53;-0.30;99.90
40454;DHT22;26160;51.858;4.398;2023-02-15T05:18:21;-0.30;99.90
40454;DHT22;26160;51.858;4.398;2023-02-15T05:20:48;-0.20;99.90
40454;DHT22;26160;51.858;4.398;2023-02-15T05:23:14;-0.20;99.90
40454;DHT22;26160;51.858;4.398;2023-02-15T05:25:45;-0.20;99.90
40454;DHT22;26160;51.858;4.398;2023-02-15T05:28:30;-0.20;99.90
40454;DHT22;26160;51.858;4.398;2023-02-15T05:31:15;-0.20;99.90
40454;DHT22;26160;51.858;4.398;2023-02-15T05:33:42;-0.30;99.90
40454;DHT22;26160;51.858;4.398;2023-02-15T05:36:09;-0.30;99.90
40454;DHT22;26160;51.858;4.398;2023-02-15T05:38:36;-0.20;99.90
40454;DHT22;26160;51.858;4.398;2023-02-15T05:41:06;-0.20;99.90
40454;DHT22;26160;51.858;4.398;2023-02-15T05:43:32;-0.10;99.90
40454;DHT22;26160;51.858;4.398;2023-02-15T05:45:58;-0.10;99.90
40454;DHT22;26160;51.858;4.398;2023-02-15T05:48:25;-0.20;99.90
40454;DHT22;26160;51.858;4.398;2023-02-15T05:51:04;-0.20;99.90
40454;DHT22;26160;51.858;4.398;2023-02-15T05:53:33;-0.20;99.90
40454;DHT22;26160;51.858;4.398;2023-02-15T05:56:00;-0.10;99.90
40454;DHT22;26160;51.858;4.398;2023-02-15T05:58:33;0.00;99.90
40454;DHT22;26160;51.858;4.398;2023-02-15T06:01:06;-0.20;99.90
40454;DHT22;26160;51.858;4.398;2023-02-15T06:03:32;-0.10;99.90
40454;DHT22;26160;51.858;4.398;2023-02-15T06:05:58;-0.20;99.90
40454;DHT22;26160;51.858;4.398;2023-02-15T06:08:25;-0.20;99.90
40454;DHT22;26160;51.858;4.398;2023-02-15T06:10:51;-0.30;99.90
40454;DHT22;26160;51.858;4.398;2023-02-15T06:13:17;-0.30;99.90
40454;DHT22;26160;51.858;4.398;2023-02-15T06:15:43;-0.40;99.90
40454;DHT22;26160;51.858;4.398;2023-02-15T06:18:09;-0.40;99.90
40454;DHT22;26160;51.858;4.398;2023-02-15T06:20:35;-0.30;99.90
40454;DHT22;26160;51.858;4.398;2023-02-15T06:23:01;-0.30;99.90
40454;DHT22;26160;51.858;4.398;2023-02-15T06:25:27;-0.30;99.90
40454;DHT22;26160;51.858;4.398;2023-02-15T06:27:54;-0.30;99.90
40454;DHT22;26160;51.858;4.398;2023-02-15T06:30:20;-0.30;99.90
40454;DHT22;26160;51.858;4.398;2023-02-15T06:32:46;-0.30;99.90
40454;DHT22;26160;51.858;4.398;2023-02-15T06:35:13;-0.30;99.90
40454;DHT22;26160;51.858;4.398;2023-02-15T06:37:39;-0.30;99.90
40454;DHT22;26160;51.858;4.398;2023-02-15T06:40:06;-0.30;99.90
40454;DHT22;26160;51.858;4.398;2023-02-15T06:42:32;-0.40;99.90
40454;DHT22;26160;51.858;4.398;2023-02-15T06:44:58;-0.30;99.90
40454;DHT22;26160;51.858;4.398;2023-02-15T06:47:26;-0.20;99.90
40454;DHT22;26160;51.858;4.398;2023-02-15T06:50:11;-0.20;99.90
40454;DHT22;26160;51.858;4.398;2023-02-15T06:52:42;-0.10;99.90
40454;DHT22;26160;51.858;4.398;2023-02-15T06:55:14;-0.20;99.90
40454;DHT22;26160;51.858;4.398;2023-02-15T06:57:50;0.00;99.90
40454;DHT22;26160;51.858;4.398;2023-02-15T07:00:17;0.10;99.90
40454;DHT22;26160;51.858;4.398;2023-02-15T07:02:52;0.20;99.90
40454;DHT22;26160;51.858;4.398;2023-02-15T07:05:22;0.30;99.90
40454;DHT22;26160;51.858;4.398;2023-02-15T07:07:48;0.30;99.90
40454;DHT22;26160;51.858;4.398;2023-02-15T07:10:15;0.20;99.90
40454;DHT22;26160;51.858;4.398;2023-02-15T07:12:41;0.20;99.90
40454;DHT22;26160;51.858;4.398;2023-02-15T07:15:09;0.30;99.90
40454;DHT22;26160;51.858;4.398;2023-02-15T07:17:36;0.20;99.90
40454;DHT22;26160;51.858;4.398;2023-02-15T07:20:13;0.20;99.90
40454;DHT22;26160;51.858;4.398;2023-02-15T07:22:43;0.10;99.90
40454;DHT22;26160;51.858;4.398;2023-02-15T07:25:10;0.10;99.90
40454;DHT22;26160;51.858;4.398;2023-02-15T07:27:37;0.20;99.90
40454;DHT22;26160;51.858;4.398;2023-02-15T07:30:05;0.30;99.90
40454;DHT22;26160;51.858;4.398;2023-02-15T07:32:31;0.30;99.90
40454;DHT22;26160;51.858;4.398;2023-02-15T07:34:58;0.40;99.90
40454;DHT22;26160;51.858;4.398;2023-02-15T07:37:25;0.40;99.90
40454;DHT22;26160;51.858;4.398;2023-02-15T07:39:51;0.50;99.90
40454;DHT22;26160;51.858;4.398;2023-02-15T07:42:17;0.70;99.90
40454;DHT22;26160;51.858;4.398;2023-02-15T07:44:45;0.70;99.90
40454;DHT22;26160;51.858;4.398;2023-02-15T07:47:12;0.80;99.90
40454;DHT22;26160;51.858;4.398;2023-02-15T07:49:38;0.80;99.90
40454;DHT22;26160;51.858;4.398;2023-02-15T07:52:04;0.90;99.90
40454;DHT22;26160;51.858;4.398;2023-02-15T07:54:30;1.00;99.90
40454;DHT22;26160;51.858;4.398;2023-02-15T07:56:56;1.00;99.90
40454;DHT22;26160;51.858;4.398;2023-02-15T07:59:22;1.00;99.90
40454;DHT22;26160;51.858;4.398;2023-02-15T08:01:49;1.20;99.90
40454;DHT22;26160;51.858;4.398;2023-02-15T08:04:15;1.20;99.90
40454;DHT22;26160;51.858;4.398;2023-02-15T08:06:43;1.20;99.90
40454;DHT22;26160;51.858;4.398;2023-02-15T08:09:09;1.30;99.90
40454;DHT22;26160;51.858;4.398;2023-02-15T08:11:37;1.40;99.90
40454;DHT22;26160;51.858;4.398;2023-02-15T08:14:12;1.60;99.90
40454;DHT22;26160;51.858;4.398;2023-02-15T08:16:49;1.70;99.90
40454;DHT22;26160;51.858;4.398;2023-02-15T08:21:49;1.90;99.90
40454;DHT22;26160;51.858;4.398;2023-02-15T08:24:18;2.00;99.90
40454;DHT22;26160;51.858;4.398;2023-02-15T08:26:45;2.00;99.90
40454;DHT22;26160;51.858;4.398;2023-02-15T08:29:13;2.10;99.90
40454;DHT22;26160;51.858;4.398;2023-02-15T08:31:43;2.20;99.90
40454;DHT22;26160;51.858;4.398;2023-02-15T08:34:12;2.30;99.90
40454;DHT22;26160;51.858;4.398;2023-02-15T08:36:39;2.30;99.90
40454;DHT22;26160;51.858;4.398;2023-02-15T08:39:06;2.50;99.90
40454;DHT22;26160;51.858;4.398;2023-02-15T08:41:34;2.70;99.90
40454;DHT22;26160;51.858;4.398;2023-02-15T08:44:04;2.80;99.90
40454;DHT22;26160;51.858;4.398;2023-02-15T08:46:32;3.00;99.90
40454;DHT22;26160;51.858;4.398;2023-02-15T08:48:59;3.10;99.90
40454;DHT22;26160;51.858;4.398;2023-02-15T08:51:28;3.20;99.90
40454;DHT22;26160;51.858;4.398;2023-02-15T08:53:56;3.30;99.90
40454;DHT22;26160;51.858;4.398;2023-02-15T08:56:29;3.40;99.90
40454;DHT22;26160;51.858;4.398;2023-02-15T08:58:56;3.50;99.90
40454;DHT22;26160;51.858;4.398;2023-02-15T09:01:24;3.60;99.90
40454;DHT22;26160;51.858;4.398;2023-02-15T09:03:54;3.70;99.90
40454;DHT22;26160;51.858;4.398;2023-02-15T09:06:24;3.80;99.90
40454;DHT22;26160;51.858;4.398;2023-02-15T09:08:51;3.90;99.90
40454;DHT22;26160;51.858;4.398;2023-02-15T09:11:26;3.90;99.90
40454;DHT22;26160;51.858;4.398;2023-02-15T09:14:01;4.10;99.90
40454;DHT22;26160;51.858;4.398;2023-02-15T09:16:29;4.20;99.90
40454;DHT22;26160;51.858;4.398;2023-02-15T09:18:56;4.20;99.90
40454;DHT22;26160;51.858;4.398;2023-02-15T09:21:31;4.30;99.90
40454;DHT22;26160;51.858;4.398;2023-02-15T09:24:00;4.40;99.90
40454;DHT22;26160;51.858;4.398;2023-02-15T09:26:28;4.50;99.90
40454;DHT22;26160;51.858;4.398;2023-02-15T09:28:57;4.50;99.90
40454;DHT22;26160;51.858;4.398;2023-02-15T09:31:25;4.70;99.90
40454;DHT22;26160;51.858;4.398;2023-02-15T09:33:55;4.80;99.90
40454;DHT22;26160;51.858;4.398;2023-02-15T09:36:26;4.90;99.90
40454;DHT22;26160;51.858;4.398;2023-02-15T09:52:35;5.70;99.90
40454;DHT22;26160;51.858;4.398;2023-02-15T10:12:35;6.30;99.90
40454;DHT22;26160;51.858;4.398;2023-02-15T10:15:03;6.40;99.90
40454;DHT22;26160;51.858;4.398;2023-02-15T10:20:53;6.60;99.90
40454;DHT22;26160;51.858;4.398;2023-02-15T10:23:32;6.70;99.90
40454;DHT22;26160;51.858;4.398;2023-02-15T10:26:21;6.90;99.90
40454;DHT22;26160;51.858;4.398;2023-02-15T10:29:09;6.90;99.90
40454;DHT22;26160;51.858;4.398;2023-02-15T10:34:20;7.10;99.90
40454;DHT22;26160;51.858;4.398;2023-02-15T10:40:01;7.40;99.90
40454;DHT22;26160;51.858;4.398;2023-02-15T10:42:54;7.40;99.90
40454;DHT22;26160;51.858;4.398;2023-02-15T10:45:49;7.50;99.90
40454;DHT22;26160;51.858;4.398;2023-02-15T10:50:57;7.60;99.90
40454;DHT22;26160;51.858;4.398;2023-02-15T10:56:24;7.80;99.90
40454;DHT22;26160;51.858;4.398;2023-02-15T11:01:55;7.90;99.90
40454;DHT22;26160;51.858;4.398;2023-02-15T11:05:23;8.00;99.90
40454;DHT22;26160;51.858;4.398;2023-02-15T11:07:39;8.00;99.90
40454;DHT22;26160;51.858;4.398;2023-02-15T11:10:39;8.10;99.90
40454;DHT22;26160;51.858;4.398;2023-02-15T11:13:10;8.30;99.90
40454;DHT22;26160;51.858;4.398;2023-02-15T11:23:28;8.50;99.90
40454;DHT22;26160;51.858;4.398;2023-02-15T11:26:00;8.60;99.90
40454;DHT22;26160;51.858;4.398;2023-02-15T11:28:55;8.70;99.90
40454;DHT22;26160;51.858;4.398;2023-02-15T11:31:25;8.90;99.90
40454;DHT22;26160;51.858;4.398;2023-02-15T11:34:01;8.80;99.90
40454;DHT22;26160;51.858;4.398;2023-02-15T11:36:32;8.80;99.90
40454;DHT22;26160;51.858;4.398;2023-02-15T11:39:12;8.90;99.90
40454;DHT22;26160;51.858;4.398;2023-02-15T11:42:16;8.90;99.90
40454;DHT22;26160;51.858;4.398;2023-02-15T11:45:04;8.90;99.90
40454;DHT22;26160;51.858;4.398;2023-02-15T11:47:33;9.00;99.90
40454;DHT22;26160;51.858;4.398;2023-02-15T11:49:59;9.30;99.90
40454;DHT22;26160;51.858;4.398;2023-02-15T11:52:25;9.40;99.90
40454;DHT22;26160;51.858;4.398;2023-02-15T11:54:52;9.50;99.90
40454;DHT22;26160;51.858;4.398;2023-02-15T11:57:40;9.50;99.90
40454;DHT22;26160;51.858;4.398;2023-02-15T12:02:45;9.70;99.90
40454;DHT22;26160;51.858;4.398;2023-02-15T12:05:17;9.80;99.90
40454;DHT22;26160;51.858;4.398;2023-02-15T12:08:00;9.90;99.90
40454;DHT22;26160;51.858;4.398;2023-02-15T12:10:45;10.10;99.90
40454;DHT22;26160;51.858;4.398;2023-02-15T12:13:19;10.40;99.90
40454;DHT22;26160;51.858;4.398;2023-02-15T12:15:56;10.50;99.90
40454;DHT22;26160;51.858;4.398;2023-02-15T12:18:43;10.50;99.90
40454;DHT22;26160;51.858;4.398;2023-02-15T12:21:29;10.70;99.90
40454;DHT22;26160;51.858;4.398;2023-02-15T12:24:01;10.80;99.90
40454;DHT22;26160;51.858;4.398;2023-02-15T12:26:32;10.70;99.90
40454;DHT22;26160;51.858;4.398;2023-02-15T12:29:00;10.60;99.90
40454;DHT22;26160;51.858;4.398;2023-02-15T12:34:01;10.50;99.90
40454;DHT22;26160;51.858;4.398;2023-02-15T12:36:46;10.50;99.90
40454;DHT22;26160;51.858;4.398;2023-02-15T12:39:20;10.40;99.90
40454;DHT22;26160;51.858;4.398;2023-02-15T12:44:22;10.70;99.90
40454;DHT22;26160;51.858;4.398;2023-02-15T12:49:42;10.90;99.90
40454;DHT22;26160;51.858;4.398;2023-02-15T12:54:43;10.80;99.90
40454;DHT22;26160;51.858;4.398;2023-02-15T12:57:23;10.90;99.90
40454;DHT22;26160;51.858;4.398;2023-02-15T12:59:53;11.00;99.90
40454;DHT22;26160;51.858;4.398;2023-02-15T13:02:24;11.10;99.90
40454;DHT22;26160;51.858;4.398;2023-02-15T13:04:51;11.00;99.90
40454;DHT22;26160;51.858;4.398;2023-02-15T13:07:18;11.20;99.90
40454;DHT22;26160;51.858;4.398;2023-02-15T13:09:46;11.30;99.90
40454;DHT22;26160;51.858;4.398;2023-02-15T13:12:22;11.20;99.90
40454;DHT22;26160;51.858;4.398;2023-02-15T13:14:51;11.20;99.90
40454;DHT22;26160;51.858;4.398;2023-02-15T13:17:26;11.20;99.90
40454;DHT22;26160;51.858;4.398;2023-02-15T13:20:06;11.20;99.90
40454;DHT22;26160;51.858;4.398;2023-02-15T13:22:45;11.20;99.90
40454;DHT22;26160;51.858;4.398;2023-02-15T13:25:19;11.10;99.90
40454;DHT22;26160;51.858;4.398;2023-02-15T13:27:50;11.20;99.90
40454;DHT22;26160;51.858;4.398;2023-02-15T13:30:38;11.40;99.90
40454;DHT22;26160;51.858;4.398;2023-02-15T13:33:27;11.40;99.90
40454;DHT22;26160;51.858;4.398;2023-02-15T13:41:02;11.50;99.90
40454;DHT22;26160;51.858;4.398;2023-02-15T13:55:06;11.40;99.90
40454;DHT22;26160;51.858;4.398;2023-02-15T14:17:19;11.40;99.90
40454;DHT22;26160;51.858;4.398;2023-02-15T14:20:01;11.20;99.90
40454;DHT22;26160;51.858;4.398;2023-02-15T14:22:36;11.20;99.90
40454;DHT22;26160;51.858;4.398;2023-02-15T14:27:54;11.10;99.90
40454;DHT22;26160;51.858;4.398;2023-02-15T14:30:28;11.20;99.90
40454;DHT22;26160;51.858;4.398;2023-02-15T14:35:34;11.30;99.90
40454;DHT22;26160;51.858;4.398;2023-02-15T14:49:16;11.20;99.90
40454;DHT22;26160;51.858;4.398;2023-02-15T14:59:36;11.10;99.90
40454;DHT22;26160;51.858;4.398;2023-02-15T15:12:50;10.90;99.90
40454;DHT22;26160;51.858;4.398;2023-02-15T15:23:42;10.90;99.90
40454;DHT22;26160;51.858;4.398;2023-02-15T15:26:30;10.80;99.90
40454;DHT22;26160;51.858;4.398;2023-02-15T15:28:59;10.80;99.90
40454;DHT22;26160;51.858;4.398;2023-02-15T15:31:52;10.80;99.90
40454;DHT22;26160;51.858;4.398;2023-02-15T15:37:34;10.70;99.90
40454;DHT22;26160;51.858;4.398;2023-02-15T15:48:41;10.60;99.90
40454;DHT22;26160;51.858;4.398;2023-02-15T15:51:32;10.60;99.90
40454;DHT22;26160;51.858;4.398;2023-02-15T15:54:00;10.50;99.90
40454;DHT22;26160;51.858;4.398;2023-02-15T15:56:31;10.50;99.90
40454;DHT22;26160;51.858;4.398;2023-02-15T15:59:01;10.40;99.90
40454;DHT22;26160;51.858;4.398;2023-02-15T16:01:39;10.40;99.90
40454;DHT22;26160;51.858;4.398;2023-02-15T16:04:12;10.40;99.90
40454;DHT22;26160;51.858;4.398;2023-02-15T16:06:39;10.30;99.90
40454;DHT22;26160;51.858;4.398;2023-02-15T16:09:22;10.20;99.90
40454;DHT22;26160;51.858;4.398;2023-02-15T16:11:51;10.30;99.90
40454;DHT22;26160;51.858;4.398;2023-02-15T16:16:56;10.20;99.90
40454;DHT22;26160;51.858;4.398;2023-02-15T16:19:27;10.20;99.90
40454;DHT22;26160;51.858;4.398;2023-02-15T16:21:54;10.20;99.90
40454;DHT22;26160;51.858;4.398;2023-02-15T16:29:34;10.10;99.90
40454;DHT22;26160;51.858;4.398;2023-02-15T16:32:04;10.20;99.90
40454;DHT22;26160;51.858;4.398;2023-02-15T16:34:32;10.10;99.90
40454;DHT22;26160;51.858;4.398;2023-02-15T16:37:15;10.10;99.90
40454;DHT22;26160;51.858;4.398;2023-02-15T16:39:44;10.10;99.90
40454;DHT22;26160;51.858;4.398;2023-02-15T16:42:11;10.00;99.90
40454;DHT22;26160;51.858;4.398;2023-02-15T16:44:40;10.00;99.90
40454;DHT22;26160;51.858;4.398;2023-02-15T16:47:20;9.90;99.90
40454;DHT22;26160;51.858;4.398;2023-02-15T16:49:49;9.90;99.90
40454;DHT22;26160;51.858;4.398;2023-02-15T16:52:21;9.90;99.90
40454;DHT22;26160;51.858;4.398;2023-02-15T16:54:50;9.80;99.90
40454;DHT22;26160;51.858;4.398;2023-02-15T16:57:21;9.70;99.90
40454;DHT22;26160;51.858;4.398;2023-02-15T16:59:51;9.70;99.90
40454;DHT22;26160;51.858;4.398;2023-02-15T17:02:24;9.70;99.90
40454;DHT22;26160;51.858;4.398;2023-02-15T17:05:10;9.70;99.90
40454;DHT22;26160;51.858;4.398;2023-02-15T17:07:48;9.70;99.90
40454;DHT22;26160;51.858;4.398;2023-02-15T17:21:16;9.20;99.90
40454;DHT22;26160;51.858;4.398;2023-02-15T17:23:45;9.10;99.90
40454;DHT22;26160;51.858;4.398;2023-02-15T17:26:21;9.10;99.90
40454;DHT22;26160;51.858;4.398;2023-02-15T17:28:59;9.10;99.90
40454;DHT22;26160;51.858;4.398;2023-02-15T17:31:30;9.00;99.90
40454;DHT22;26160;51.858;4.398;2023-02-15T17:33:58;9.00;99.90
40454;DHT22;26160;51.858;4.398;2023-02-15T17:36:27;8.90;99.90
40454;DHT22;26160;51.858;4.398;2023-02-15T17:38:59;8.80;99.90
40454;DHT22;26160;51.858;4.398;2023-02-15T17:41:33;8.80;99.90
40454;DHT22;26160;51.858;4.398;2023-02-15T17:44:00;8.80;99.90
40454;DHT22;26160;51.858;4.398;2023-02-15T17:46:33;8.80;99.90
40454;DHT22;26160;51.858;4.398;2023-02-15T17:49:00;8.80;99.90
40454;DHT22;26160;51.858;4.398;2023-02-15T17:51:27;8.70;99.90
40454;DHT22;26160;51.858;4.398;2023-02-15T17:53:53;8.70;99.90
40454;DHT22;26160;51.858;4.398;2023-02-15T17:56:38;8.60;99.90
40454;DHT22;26160;51.858;4.398;2023-02-15T17:59:05;8.50;99.90
40454;DHT22;26160;51.858;4.398;2023-02-15T18:01:34;8.40;99.90
40454;DHT22;26160;51.858;4.398;2023-02-15T18:04:19;8.30;99.90
40454;DHT22;26160;51.858;4.398;2023-02-15T18:07:08;8.20;99.90
40454;DHT22;26160;51.858;4.398;2023-02-15T18:09:53;8.10;99.90
40454;DHT22;26160;51.858;4.398;2023-02-15T18:12:47;8.10;99.90
40454;DHT22;26160;51.858;4.398;2023-02-15T18:15:13;8.00;99.90
40454;DHT22;26160;51.858;4.398;2023-02-15T18:17:45;8.00;99.90
40454;DHT22;26160;51.858;4.398;2023-02-15T18:20:21;8.00;99.90
40454;DHT22;26160;51.858;4.398;2023-02-15T18:22:50;8.00;99.90
40454;DHT22;26160;51.858;4.398;2023-02-15T18:25:21;8.00;99.90
40454;DHT22;26160;51.858;4.398;2023-02-15T18:27:48;8.00;99.90
40454;DHT22;26160;51.858;4.398;2023-02-15T18:30:17;8.00;99.90
40454;DHT22;26160;51.858;4.398;2023-02-15T18:32:45;8.10;99.90
40454;DHT22;26160;51.858;4.398;2023-02-15T18:35:17;8.30;99.90
40454;DHT22;26160;51.858;4.398;2023-02-15T18:37:44;8.40;99.90
40454;DHT22;26160;51.858;4.398;2023-02-15T18:40:20;8.40;99.90
40454;DHT22;26160;51.858;4.398;2023-02-15T18:42:47;8.40;99.90
40454;DHT22;26160;51.858;4.398;2023-02-15T18:47:46;8.40;99.90
40454;DHT22;26160;51.858;4.398;2023-02-15T18:50:14;8.40;99.90
40454;DHT22;26160;51.858;4.398;2023-02-15T18:52:43;8.40;99.90
40454;DHT22;26160;51.858;4.398;2023-02-15T18:55:17;8.20;99.90
40454;DHT22;26160;51.858;4.398;2023-02-15T18:57:45;8.20;99.90
40454;DHT22;26160;51.858;4.398;2023-02-15T19:00:15;8.10;99.90
40454;DHT22;26160;51.858;4.398;2023-02-15T19:02:42;8.10;99.90
40454;DHT22;26160;51.858;4.398;2023-02-15T19:05:08;8.00;99.90
40454;DHT22;26160;51.858;4.398;2023-02-15T19:07:35;8.00;99.90
40454;DHT22;26160;51.858;4.398;2023-02-15T19:10:05;7.80;99.90
40454;DHT22;26160;51.858;4.398;2023-02-15T19:12:31;7.80;99.90
40454;DHT22;26160;51.858;4.398;2023-02-15T19:14:58;7.70;99.90
40454;DHT22;26160;51.858;4.398;2023-02-15T19:17:24;7.80;99.90
40454;DHT22;26160;51.858;4.398;2023-02-15T19:19:51;7.80;99.90
40454;DHT22;26160;51.858;4.398;2023-02-15T19:24:50;7.80;99.90
40454;DHT22;26160;51.858;4.398;2023-02-15T19:30:15;7.60;99.90
40454;DHT22;26160;51.858;4.398;2023-02-15T19:32:43;7.50;99.90
40454;DHT22;26160;51.858;4.398;2023-02-15T19:35:14;7.50;99.90
40454;DHT22;26160;51.858;4.398;2023-02-15T19:37:43;7.50;99.90
40454;DHT22;26160;51.858;4.398;2023-02-15T19:40:21;7.60;99.90
40454;DHT22;26160;51.858;4.398;2023-02-15T19:42:48;7.60;99.90
40454;DHT22;26160;51.858;4.398;2023-02-15T19:45:18;7.50;99.90
40454;DHT22;26160;51.858;4.398;2023-02-15T19:47:44;7.40;99.90
40454;DHT22;26160;51.858;4.398;2023-02-15T19:50:37;7.30;99.90